マサトラン の空港の天気 - METARとTAF

ヘネラル・ラファエル・ブエルナ国際空港 ( MMMZ / MZT ) - メキシコ シナロア州マサトラン
飛行場実況気象(Metar)
観測時間04/09 22:44 MDT (04/10 04:44 UTC)
風向・風速静穏 0m/s
視程10km以上
天気現象
全天の4割程度の雲 雲底高度 2740m
全天の8割程度の雲 雲底高度 7320m
気温22℃
湿度73%
気圧1014hPa
METARMMMZ 100444Z 00000KT 10SM SCT090 BKN240 22/17 A2993 RMK 8/032
過去の天気等 Google飛行場航空写真 Wunderground天気予報

過去48時間のMETAR

飛行場予報(TAF)
発表時間: 4/09 23:06 MDT (4/10 05:06 UTC)
予報対象時間: 10日0時 MDT ~ 11日6時 MDT
風向・風速静穏
視程10km以上
全天の4割程度の雲 雲底高度 2740m
全天の8割程度の雲 雲底高度 7320m
10日12時 MDT から
風向・風速西 8m/s
視程10km以上
全天の8割程度の雲 雲底高度 7320m
10日18時 MDT ~ 10日19時 MDT に徐々に
風向・風速西北西 3m/s
TAF MMMZ 100506Z 1006/1112 00000KT P6SM SCT090 BKN240 TX32/1021Z TN19/1012Z
FM101800 28015KT P6SM BKN240
BECMG 1100/1101 30005KT